Terminal Aerodrome Forecast
Issued by NWS Louisville, KY

Home | Current Version | Previous Version | Text Only | Print | Product List | Glossary On
Versions: 1 2 3 4 5 6 7 8 9 10 11 12
658
FTUS43 KLMK 220523
TAFLEX
TAF
KLEX 220523Z 2206/2306 32012KT P6SM BKN070
     FM220630 34015G22KT P6SM BKN025
     FM220730 36012KT P6SM FEW250
     FM221300 36009KT P6SM FEW120 SCT250
     FM222000 36008KT P6SM SCT025=

USA.gov is the U.S. government's official web portal to all federal, state and local government web resources and services.